White Creek, New York
Current Conditions -  °F | °C
As of 10:44 PM on Monday 22 Dec 2014 (Local Time) from KDDH Reporting Station
Overcast Overcast  
Wind Chill: 30°   Ceiling: 1700
Heat Index: 38°   Visibility: 10mi
Dew Point: 32°   Wind: 13mph
Humidity: 79%   Direction: 120°ESE
Pressure: 30.21"   Gusts: 18mph
Location:  42.9693°N, 73.3467°W
Report Text: KDDH 230344Z AUTO 12011G16KT 10SM BKN017 OVC035 03/00 A3021 RMK AO2 T00330000
Loading
Personal Weather Stations






























Interactive Weather Map New forecast layout! Learn more

10-Day Weather Forecast

Advertisements
Track Severe Weather on mobile